Time;durP1;ratioP1;P1;durP2;ratioP2;P2;SDS_P1;SDS_P2;PMS_P1;PMS_P2;Temp;Humidity;BMP_temperature;BMP_pressure;BME280_temperature;BME280_humidity;BME280_pressure;Samples;Min_cycle;Max_cycle;Signal;HPM_P1;HPM_P2
2021/04/14 00:00:31;;;;;;;4.32;2.60;;;9.30;55.60;;;;;;6185519;23;20051;-55
2021/04/14 00:02:59;;;;;;;5.18;2.65;;;9.30;55.60;;;;;;6185981;23;20096;-55
2021/04/14 00:05:27;;;;;;;6.40;2.40;;;9.30;55.60;;;;;;6185843;23;20005;-55
2021/04/14 00:07:53;;;;;;;5.78;2.33;;;9.30;55.70;;;;;;6184893;23;20080;-55
2021/04/14 00:10:25;;;;;;;4.28;2.03;;;9.30;55.70;;;;;;6185481;23;20352;-55
2021/04/14 00:12:51;;;;;;;4.68;2.40;;;9.30;55.60;;;;;;6185311;23;20154;-56
2021/04/14 00:15:22;;;;;;;7.20;2.17;;;9.30;55.60;;;;;;6185683;23;20044;-55
2021/04/14 00:17:47;;;;;;;5.00;1.98;;;9.30;55.70;;;;;;6185618;23;20100;-55
2021/04/14 00:20:14;;;;;;;3.22;1.60;;;9.30;55.70;;;;;;6184855;23;20041;-55
2021/04/14 00:22:40;;;;;;;2.88;1.70;;;9.30;55.70;;;;;;6185374;23;20001;-55
2021/04/14 00:25:07;;;;;;;6.03;1.90;;;9.30;55.70;;;;;;6185815;23;20088;-55
2021/04/14 00:27:37;;;;;;;2.42;1.38;;;9.30;55.70;;;;;;6185087;23;19997;-55
2021/04/14 00:30:06;;;;;;;2.60;1.67;;;9.30;55.70;;;;;;6184728;23;20473;-55
2021/04/14 00:32:32;;;;;;;3.75;1.90;;;9.20;55.70;;;;;;6185675;23;20008;-55
2021/04/14 00:34:58;;;;;;;2.95;1.75;;;9.30;55.80;;;;;;6185473;23;20301;-55
2021/04/14 00:37:23;;;;;;;3.15;1.83;;;9.20;55.70;;;;;;6185208;23;20004;-55
2021/04/14 00:39:49;;;;;;;2.85;1.95;;;9.20;55.70;;;;;;6184671;23;20009;-55
2021/04/14 00:42:15;;;;;;;9.77;2.10;;;9.20;55.70;;;;;;6185535;23;20012;-55
2021/04/14 00:44:40;;;;;;;5.47;1.60;;;9.20;55.70;;;;;;6185428;23;20015;-55
2021/04/14 00:47:06;;;;;;;3.90;2.00;;;9.20;55.70;;;;;;6185241;23;20412;-55
2021/04/14 00:49:32;;;;;;;4.50;1.88;;;9.20;55.70;;;;;;6185366;23;20009;-55
2021/04/14 00:51:58;;;;;;;4.13;2.47;;;9.20;55.70;;;;;;6185494;23;20005;-55
2021/04/14 00:54:23;;;;;;;6.07;2.15;;;9.20;56.30;;;;;;6185455;23;20348;-55
2021/04/14 00:56:49;;;;;;;3.63;1.83;;;9.20;55.70;;;;;;6185164;23;20060;-56
2021/04/14 00:59:14;;;;;;;3.92;2.13;;;9.20;55.70;;;;;;6185333;23;20096;-55
2021/04/14 01:01:40;;;;;;;3.88;1.80;;;9.20;55.80;;;;;;6185086;23;20012;-55
2021/04/14 01:04:05;;;;;;;4.68;1.63;;;9.20;55.70;;;;;;6185290;23;20001;-55
2021/04/14 01:06:31;;;;;;;5.30;1.90;;;9.20;55.70;;;;;;6185489;23;20005;-55
2021/04/14 01:08:58;;;;;;;7.97;2.53;;;9.10;55.70;;;;;;6184821;23;20009;-55
2021/04/14 01:11:26;;;;;;;3.45;2.35;;;9.20;55.70;;;;;;6185470;23;20056;-55
2021/04/14 01:13:52;;;;;;;3.90;1.98;;;9.10;55.70;;;;;;6185468;23;20009;-55
2021/04/14 01:16:18;;;;;;;8.55;2.25;;;9.10;55.70;;;;;;6185432;23;20072;-55
2021/04/14 01:18:44;;;;;;;7.63;2.58;;;9.10;55.70;;;;;;6186571;23;20419;-55
2021/04/14 01:21:19;;;;;;;4.97;2.47;;;9.10;55.70;;;;;;6187467;23;20006;-56
2021/04/14 01:23:45;;;;;;;12.93;3.05;;;9.10;55.70;;;;;;6186879;23;20454;-55
2021/04/14 01:26:11;;;;;;;7.32;3.00;;;9.10;55.70;;;;;;6187512;23;20051;-55
2021/04/14 01:28:39;;;;;;;5.57;2.97;;;9.10;55.80;;;;;;6187250;23;20397;-55
2021/04/14 01:31:12;;;;;;;9.18;2.83;;;9.10;55.80;;;;;;6187296;23;20040;-55
2021/04/14 01:33:38;;;;;;;7.38;3.45;;;9.10;55.70;;;;;;6186745;23;20027;-56
2021/04/14 01:36:07;;;;;;;6.65;3.15;;;9.10;55.70;;;;;;6187276;23;20005;-55
2021/04/14 01:38:33;;;;;;;6.93;3.05;;;9.10;55.70;;;;;;6186224;23;20486;-56
2021/04/14 01:41:00;;;;;;;7.75;3.15;;;9.10;55.70;;;;;;6186756;23;20484;-55
2021/04/14 01:43:26;;;;;;;14.30;3.22;;;9.10;55.70;;;;;;6186573;23;20068;-56
2021/04/14 01:45:52;;;;;;;5.22;2.78;;;9.10;55.70;;;;;;6187326;23;20001;-56
2021/04/14 01:48:19;;;;;;;16.92;3.85;;;9.10;55.70;;;;;;6186283;23;20020;-55
2021/04/14 01:50:45;;;;;;;4.75;2.72;;;9.10;55.70;;;;;;6186760;23;20275;-55
2021/04/14 01:53:13;;;;;;;7.43;2.67;;;9.10;55.70;;;;;;6186837;23;20008;-55
2021/04/14 01:55:39;;;;;;;5.93;2.40;;;9.10;55.70;;;;;;6187059;23;20068;-55
2021/04/14 01:58:07;;;;;;;5.45;2.15;;;9.10;55.80;;;;;;6186765;23;20005;-55
2021/04/14 02:00:48;;;;;;;6.85;2.03;;;9.10;55.70;;;;;;6186235;23;20013;-56
2021/04/14 02:03:14;;;;;;;6.20;2.10;;;9.10;55.70;;;;;;6186855;23;20008;-56
2021/04/14 02:05:40;;;;;;;3.67;2.22;;;9.10;55.60;;;;;;6186898;23;20009;-55
2021/04/14 02:08:08;;;;;;;4.53;2.33;;;9.10;55.70;;;;;;6186860;23;20001;-55
2021/04/14 02:10:34;;;;;;;5.68;2.53;;;9.10;55.70;;;;;;6186691;23;20012;-56
2021/04/14 02:13:03;;;;;;;4.78;2.00;;;9.10;55.70;;;;;;6186714;23;20005;-55
2021/04/14 02:15:33;;;;;;;4.67;2.20;;;9.10;55.70;;;;;;6186361;23;20260;-55
2021/04/14 02:17:59;;;;;;;12.23;2.22;;;9.10;55.70;;;;;;6186601;23;20051;-55
2021/04/14 02:20:25;;;;;;;2.10;1.70;;;9.10;55.70;;;;;;6185933;23;20421;-55
2021/04/14 02:22:52;;;;;;;2.17;1.58;;;9.10;55.70;;;;;;6186450;23;20001;-55
2021/04/14 02:25:20;;;;;;;2.03;1.30;;;9.10;55.70;;;;;;6186780;23;20009;-55
2021/04/14 02:27:46;;;;;;;2.42;1.27;;;9.10;55.60;;;;;;6186298;23;20412;-55
2021/04/14 02:30:18;;;;;;;6.68;2.25;;;9.10;55.60;;;;;;6185434;23;20088;-56
2021/04/14 02:32:44;;;;;;;4.57;2.50;;;9.10;55.70;;;;;;6186559;23;20060;-55
2021/04/14 02:35:10;;;;;;;3.60;2.22;;;9.10;55.60;;;;;;6186402;23;20005;-55
2021/04/14 02:37:36;;;;;;;3.10;2.00;;;9.10;55.60;;;;;;6186127;23;20001;-56
2021/04/14 02:40:05;;;;;;;3.40;2.15;;;9.10;55.70;;;;;;6186238;23;20373;-55
2021/04/14 02:42:31;;;;;;;4.05;2.22;;;9.10;55.60;;;;;;6185843;23;20002;-55
2021/04/14 02:44:56;;;;;;;4.35;2.03;;;9.10;55.60;;;;;;6186826;23;20096;-55
2021/04/14 02:47:22;;;;;;;3.03;2.13;;;9.10;55.60;;;;;;6185930;23;20007;-56
2021/04/14 02:49:48;;;;;;;5.25;2.30;;;9.10;55.60;;;;;;6182174;23;20009;-55
2021/04/14 02:52:13;;;;;;;3.90;2.03;;;9.10;55.60;;;;;;6186133;23;19997;-55
2021/04/14 02:54:39;;;;;;;8.40;2.00;;;9.10;55.60;;;;;;6186017;23;20163;-55
2021/04/14 02:57:04;;;;;;;2.60;1.52;;;9.10;55.60;;;;;;6186335;23;20415;-55
2021/04/14 02:59:30;;;;;;;2.75;1.55;;;9.10;55.60;;;;;;6185580;23;20360;-55
2021/04/14 03:01:56;;;;;;;4.97;1.90;;;9.10;55.60;;;;;;6186020;23;20001;-55
2021/04/14 03:04:21;;;;;;;3.55;1.92;;;9.00;55.50;;;;;;6186114;23;20080;-55
2021/04/14 03:06:47;;;;;;;3.28;1.77;;;9.10;55.60;;;;;;6186498;23;20080;-55
2021/04/14 03:09:13;;;;;;;2.67;1.90;;;9.10;55.60;;;;;;6185497;23;20076;-55
2021/04/14 03:11:38;;;;;;;3.33;2.00;;;9.10;55.60;;;;;;6185803;23;20024;-56
2021/04/14 03:14:04;;;;;;;3.25;1.92;;;9.00;56.20;;;;;;6186315;23;20012;-56
2021/04/14 03:16:30;;;;;;;2.83;1.95;;;9.00;55.50;;;;;;6186166;23;20009;-55
2021/04/14 03:18:55;;;;;;;3.80;2.00;;;9.00;55.60;;;;;;6184921;23;20096;-55
2021/04/14 03:21:21;;;;;;;2.28;1.83;;;9.00;55.60;;;;;;6186084;23;20009;-55
2021/04/14 03:23:47;;;;;;;2.63;1.80;;;9.00;55.60;;;;;;6185655;23;20000;-56
2021/04/14 03:26:13;;;;;;;8.43;2.03;;;9.10;55.60;;;;;;6186230;23;20005;-56
2021/04/14 03:28:39;;;;;;;5.07;2.17;;;9.00;55.60;;;;;;6185667;23;20298;-55
2021/04/14 03:31:04;;;;;;;2.35;1.92;;;9.00;55.50;;;;;;6185559;23;20005;-55
2021/04/14 03:33:30;;;;;;;5.32;1.77;;;9.00;55.60;;;;;;6185853;23;20001;-55
2021/04/14 03:35:55;;;;;;;3.92;2.13;;;9.00;55.60;;;;;;6186080;23;20009;-55
2021/04/14 03:38:21;;;;;;;4.97;2.22;;;9.00;55.60;;;;;;6184881;23;20033;-55
2021/04/14 03:40:47;;;;;;;8.23;2.60;;;9.00;55.60;;;;;;6185505;23;20023;-55
2021/04/14 03:43:12;;;;;;;6.07;2.42;;;9.00;55.60;;;;;;6186013;23;20005;-55
2021/04/14 03:45:42;;;;;;;3.70;1.80;;;9.00;55.60;;;;;;6185508;23;20076;-55
2021/04/14 03:48:09;;;;;;;5.45;2.25;;;9.00;55.60;;;;;;6185674;23;20001;-55
2021/04/14 03:50:35;;;;;;;5.45;2.53;;;9.00;55.60;;;;;;6185040;23;20035;-55
2021/04/14 03:53:25;;;;;;;6.65;3.03;;;9.00;55.60;;;;;;6185572;23;20001;-55
2021/04/14 03:55:59;;;;;;;6.83;3.17;;;9.00;55.70;;;;;;6186076;23;20282;-55
2021/04/14 03:58:26;;;;;;;10.48;3.53;;;9.00;55.60;;;;;;6184997;23;20232;-56
2021/04/14 04:00:57;;;;;;;9.50;3.65;;;8.90;55.60;;;;;;6185064;23;20127;-55
2021/04/14 04:03:24;;;;;;;12.43;4.43;;;9.00;55.70;;;;;;6185485;23;20075;-55
2021/04/14 04:05:51;;;;;;;11.35;4.70;;;8.90;55.60;;;;;;6185483;23;19997;-55
2021/04/14 04:08:16;;;;;;;10.52;4.03;;;8.90;55.60;;;;;;6185461;23;20009;-55
2021/04/14 04:10:43;;;;;;;9.43;2.97;;;8.90;55.60;;;;;;6185504;23;20052;-55
2021/04/14 04:13:09;;;;;;;6.43;2.67;;;8.90;55.60;;;;;;6185749;23;20001;-55
2021/04/14 04:15:37;;;;;;;6.47;2.85;;;8.90;55.60;;;;;;6185452;23;20005;-56
2021/04/14 04:18:04;;;;;;;6.82;2.95;;;8.90;55.60;;;;;;6185187;23;20426;-55
2021/04/14 04:20:29;;;;;;;3.53;2.78;;;8.90;55.60;;;;;;6184928;23;20020;-55
2021/04/14 04:22:56;;;;;;;5.53;2.65;;;8.90;55.60;;;;;;6185913;23;20317;-55
2021/04/14 04:25:21;;;;;;;9.70;2.88;;;8.90;55.60;;;;;;6184906;23;20004;-55
2021/04/14 04:27:47;;;;;;;6.15;2.40;;;8.90;55.60;;;;;;6185560;23;20008;-56
2021/04/14 04:30:13;;;;;;;7.80;2.08;;;8.90;55.60;;;;;;6184833;23;20305;-56
2021/04/14 04:32:38;;;;;;;7.93;2.30;;;8.90;55.70;;;;;;6184956;23;20009;-56
2021/04/14 04:35:06;;;;;;;6.03;2.25;;;8.90;55.60;;;;;;6185383;23;20016;-55
2021/04/14 04:37:32;;;;;;;7.32;2.47;;;8.90;55.60;;;;;;6185978;23;20025;-55
2021/04/14 04:39:57;;;;;;;3.47;2.10;;;8.90;55.60;;;;;;6184995;23;20013;-55
2021/04/14 04:42:23;;;;;;;6.75;2.30;;;8.90;55.60;;;;;;6185302;23;20005;-55
2021/04/14 04:44:48;;;;;;;8.10;2.80;;;8.90;55.60;;;;;;6184875;23;20012;-55
2021/04/14 04:47:14;;;;;;;6.13;2.33;;;8.80;55.60;;;;;;6184828;23;20001;-55
2021/04/14 04:49:40;;;;;;;5.05;2.38;;;8.80;55.60;;;;;;6184731;23;20300;-55
2021/04/14 04:52:06;;;;;;;7.85;2.47;;;8.80;55.50;;;;;;6186068;23;20016;-55
2021/04/14 04:54:32;;;;;;;3.60;2.50;;;8.80;55.60;;;;;;6186577;23;20273;-55
2021/04/14 04:56:58;;;;;;;5.00;2.50;;;8.80;55.60;;;;;;6186953;23;20297;-56
2021/04/14 04:59:24;;;;;;;4.50;2.38;;;8.80;55.60;;;;;;6187014;23;20091;-55
2021/04/14 05:01:51;;;;;;;6.80;2.30;;;8.80;55.50;;;;;;6186624;23;20348;-56
2021/04/14 05:04:17;;;;;;;7.47;2.55;;;8.80;55.60;;;;;;6187072;23;20084;-55
2021/04/14 05:06:42;;;;;;;3.15;2.17;;;8.80;55.60;;;;;;6187023;23;20304;-55
2021/04/14 05:09:08;;;;;;;4.65;2.13;;;8.80;55.50;;;;;;6186644;23;20036;-57
2021/04/14 05:11:34;;;;;;;10.52;2.60;;;8.90;55.10;;;;;;6186704;23;20391;-57
2021/04/14 05:13:59;;;;;;;9.25;2.53;;;8.80;55.20;;;;;;6187039;23;20008;-57
2021/04/14 05:16:25;;;;;;;9.07;2.42;;;8.80;55.10;;;;;;6210307;23;20316;-56
2021/04/14 05:18:51;;;;;;;3.55;2.20;;;8.80;55.10;;;;;;6186752;23;20009;-56
2021/04/14 05:21:19;;;;;;;2.90;2.05;;;8.80;54.90;;;;;;6187163;23;20389;-56
2021/04/14 05:23:45;;;;;;;3.67;2.03;;;8.80;54.90;;;;;;6186939;23;20025;-56
2021/04/14 05:26:10;;;;;;;5.18;2.33;;;8.80;54.80;;;;;;6186811;23;20017;-56
2021/04/14 05:28:36;;;;;;;3.55;1.75;;;8.80;54.90;;;;;;6186678;23;20001;-56
2021/04/14 05:31:01;;;;;;;4.75;1.48;;;8.80;54.90;;;;;;6187001;23;20040;-57
2021/04/14 05:33:27;;;;;;;3.40;1.85;;;8.80;54.90;;;;;;6186683;23;20028;-56
2021/04/14 05:35:54;;;;;;;3.55;1.90;;;8.90;54.90;;;;;;6186897;23;20009;-57
2021/04/14 05:38:20;;;;;;;6.88;1.98;;;8.80;54.90;;;;;;6186483;23;20025;-57
2021/04/14 05:40:45;;;;;;;4.28;2.13;;;8.90;54.90;;;;;;6186435;23;20024;-56
2021/04/14 05:43:16;;;;;;;3.67;1.75;;;8.90;55.00;;;;;;6185062;23;20351;-56
2021/04/14 05:45:42;;;;;;;6.70;1.85;;;9.10;54.90;;;;;;6186030;23;20012;-57
2021/04/14 05:48:08;;;;;;;3.10;2.00;;;9.20;54.70;;;;;;6186564;23;20008;-56
2021/04/14 05:50:34;;;;;;;3.15;1.90;;;9.20;54.60;;;;;;6186462;23;20001;-56
2021/04/14 05:52:59;;;;;;;4.20;1.33;;;9.30;54.40;;;;;;6186717;23;20385;-56
2021/04/14 05:55:25;;;;;;;3.28;1.65;;;9.30;54.20;;;;;;6186847;23;20063;-57
2021/04/14 05:57:51;;;;;;;5.63;1.92;;;9.30;54.00;;;;;;6186624;23;20040;-56
2021/04/14 06:00:18;;;;;;;3.67;2.00;;;9.40;54.00;;;;;;6186709;23;20013;-57
2021/04/14 06:02:43;;;;;;;9.18;1.85;;;9.40;53.80;;;;;;6209700;23;20005;-56
2021/04/14 06:05:12;;;;;;;3.50;2.20;;;9.40;53.80;;;;;;6186853;23;20412;-56
2021/04/14 06:07:38;;;;;;;8.75;2.35;;;9.50;53.70;;;;;;6186382;23;20041;-56
2021/04/14 06:10:08;;;;;;;7.90;2.00;;;9.50;53.50;;;;;;6186351;23;20071;-56
2021/04/14 06:12:34;;;;;;;5.07;1.85;;;9.50;53.40;;;;;;6186198;23;20005;-56
2021/04/14 06:14:59;;;;;;;9.13;3.17;;;9.60;53.30;;;;;;6186743;23;20064;-56
2021/04/14 06:17:25;;;;;;;3.28;1.85;;;9.60;53.10;;;;;;6186540;23;20001;-56
2021/04/14 06:19:51;;;;;;;5.07;2.00;;;9.70;53.20;;;;;;6185557;23;20017;-56
2021/04/14 06:22:17;;;;;;;5.65;1.92;;;9.80;53.10;;;;;;6186447;23;20001;-56
2021/04/14 06:24:43;;;;;;;6.53;1.80;;;9.80;52.90;;;;;;6186506;23;20012;-56
2021/04/14 06:27:12;;;;;;;9.93;1.98;;;9.90;52.70;;;;;;6186510;23;20005;-56
2021/04/14 06:29:37;;;;;;;3.75;2.30;;;9.90;52.50;;;;;;6186312;23;20009;-56
2021/04/14 06:32:03;;;;;;;3.55;2.20;;;10.00;52.50;;;;;;6186553;23;20380;-56
2021/04/14 06:34:30;;;;;;;4.10;1.77;;;10.10;53.10;;;;;;6186475;23;20005;-56
2021/04/14 06:37:00;;;;;;;4.05;2.05;;;10.10;52.40;;;;;;6186331;23;20032;-56
2021/04/14 06:39:29;;;;;;;6.28;2.20;;;10.20;52.90;;;;;;6186160;23;20021;-56
2021/04/14 06:42:16;;;;;;;4.43;1.85;;;10.30;52.30;;;;;;6186204;23;20309;-56
2021/04/14 06:45:13;;;;;;;8.73;2.70;;;10.30;52.30;;;;;;6186565;23;20001;-56
2021/04/14 06:47:51;;;;;;;7.40;2.35;;;10.40;52.30;;;;;;6174983;23;20009;-56
2021/04/14 06:50:20;;;;;;;2.25;1.83;;;10.50;52.30;;;;;;6186309;23;20001;-56
2021/04/14 06:52:45;;;;;;;10.43;2.42;;;10.50;52.40;;;;;;6186083;23;20011;-55
2021/04/14 06:55:21;;;;;;;11.00;2.00;;;10.60;52.30;;;;;;6186355;23;20075;-56
2021/04/14 06:57:54;;;;;;;5.40;1.85;;;10.70;52.30;;;;;;6186167;23;20059;-56
2021/04/14 07:00:35;;;;;;;3.35;1.83;;;10.70;52.30;;;;;;6186226;23;20092;-55
2021/04/14 07:03:12;;;;;;;5.60;1.65;;;10.80;52.40;;;;;;6185972;23;20356;-56
2021/04/14 07:05:54;;;;;;;2.13;1.40;;;10.90;52.60;;;;;;6185700;23;20397;-55
2021/04/14 07:08:21;;;;;;;10.50;1.70;;;10.90;52.50;;;;;;6185834;23;20009;-56
2021/04/14 07:11:01;;;;;;;13.88;1.88;;;11.00;52.60;;;;;;6185951;23;20415;-56
2021/04/14 07:13:31;;;;;;;8.13;1.60;;;11.10;52.80;;;;;;6185886;23;19997;-55
2021/04/14 07:16:18;;;;;;;5.30;1.73;;;11.10;52.80;;;;;;6185742;23;20009;-55
2021/04/14 07:19:07;;;;;;;6.75;2.50;;;11.20;52.80;;;;;;6185539;23;20409;-56
2021/04/14 07:21:50;;;;;;;2.95;1.80;;;11.30;52.70;;;;;;6155237;23;20304;-55
2021/04/14 07:24:25;;;;;;;4.72;1.98;;;11.40;52.50;;;;;;6185857;23;20013;-55
2021/04/14 07:27:19;;;;;;;4.47;1.42;;;11.40;52.40;;;;;;6186117;23;20004;-55
2021/04/14 07:29:51;;;;;;;7.95;1.80;;;11.50;52.10;;;;;;6185213;23;20008;-55
2021/04/14 07:32:46;;;;;;;1.05;1.05;;;11.60;51.80;;;;;;6185893;23;20060;-55
2021/04/14 07:35:33;;;;;;;5.65;2.10;;;11.70;51.60;;;;;;6186254;23;20293;-55
2021/04/14 07:38:19;;;;;;;9.23;2.47;;;11.70;51.30;;;;;;6185907;23;20001;-55
2021/04/14 07:41:17;;;;;;;11.90;2.28;;;11.80;50.90;;;;;;6185568;23;20411;-55
2021/04/14 07:44:00;;;;;;;16.70;2.63;;;11.90;50.90;;;;;;6123325;23;20006;-55
2021/04/14 07:46:27;;;;;;;4.32;1.52;;;12.00;50.80;;;;;;6123605;23;20033;-55
2021/04/14 07:48:56;;;;;;;4.07;1.55;;;12.00;50.50;;;;;;6122960;23;20053;-55
2021/04/14 07:51:23;;;;;;;7.68;1.40;;;12.10;50.30;;;;;;6123258;23;20002;-55
2021/04/14 07:54:14;;;;;;;2.92;1.10;;;12.10;50.00;;;;;;6123571;23;20125;-55
2021/04/14 07:56:56;;;;;;;5.57;1.85;;;12.20;49.80;;;;;;6123623;23;20524;-55
2021/04/14 07:59:24;;;;;;;4.35;1.90;;;12.20;49.60;;;;;;6123050;23;20020;-55
2021/04/14 08:02:04;;;;;;;7.20;1.92;;;12.20;49.50;;;;;;6123155;23;20069;-55
2021/04/14 08:04:35;;;;;;;2.42;1.27;;;12.30;49.40;;;;;;6123774;23;20002;-55
2021/04/14 08:07:16;;;;;;;4.68;2.20;;;12.30;49.20;;;;;;6123538;23;20005;-55
2021/04/14 08:10:03;;;;;;;;;;;12.40;49.00;;;;;;6123811;23;20117;-55
2021/04/14 08:12:38;;;;;;;1.17;0.70;;;12.40;49.20;;;;;;6123178;23;19905;-55
2021/04/14 08:15:26;;;;;;;1.63;1.05;;;12.40;48.70;;;;;;6123661;23;20006;-55
2021/04/14 08:17:53;;;;;;;5.35;1.95;;;12.50;48.60;;;;;;6123306;23;20064;-55
2021/04/14 08:20:31;;;;;;;7.03;2.40;;;12.50;48.50;;;;;;6148936;23;20092;-55
2021/04/14 08:23:09;;;;;;;5.93;2.58;;;12.60;48.40;;;;;;6185500;23;20009;-55
2021/04/14 08:25:35;;;;;;;6.88;2.40;;;12.60;48.20;;;;;;6185670;23;20005;-56
2021/04/14 08:28:02;;;;;;;6.95;2.75;;;12.60;48.20;;;;;;6186561;23;20290;-55
2021/04/14 08:30:28;;;;;;;4.88;1.75;;;12.70;48.10;;;;;;6187187;23;20336;-55
2021/04/14 08:32:54;;;;;;;5.50;1.52;;;12.70;48.10;;;;;;6187287;23;20036;-55
2021/04/14 08:35:53;;;;;;;2.53;1.38;;;12.70;47.90;;;;;;6187539;23;20009;-55
2021/04/14 08:38:24;;;;;;;6.65;2.22;;;12.80;47.70;;;;;;6187327;23;20008;-55
2021/04/14 08:40:57;;;;;;;7.63;2.40;;;12.80;47.60;;;;;;6187583;23;20078;-55
2021/04/14 08:43:29;;;;;;;5.90;2.55;;;12.80;47.60;;;;;;6187090;23;20004;-55
2021/04/14 08:45:55;;;;;;;1.20;1.08;;;12.80;47.50;;;;;;6187899;23;20009;-55
2021/04/14 08:48:28;;;;;;;5.75;1.58;;;12.90;47.70;;;;;;6187223;23;20201;-55
2021/04/14 08:51:04;;;;;;;1.17;0.73;;;12.90;47.20;;;;;;6187811;23;20024;-55
2021/04/14 08:53:36;;;;;;;5.63;2.53;;;13.00;47.10;;;;;;6186679;23;20457;-55
2021/04/14 08:56:03;;;;;;;7.28;2.80;;;13.00;47.00;;;;;;6187589;23;20072;-55
2021/04/14 08:58:29;;;;;;;4.57;2.90;;;13.00;46.90;;;;;;6186956;23;20088;-55
2021/04/14 09:00:55;;;;;;;5.03;2.38;;;13.00;47.00;;;;;;6187683;23;20033;-55
2021/04/14 09:03:23;;;;;;;5.82;1.85;;;13.10;47.20;;;;;;6187168;23;20013;-55
2021/04/14 09:05:49;;;;;;;2.85;1.05;;;13.10;46.70;;;;;;6187235;23;20001;-55
2021/04/14 09:08:22;;;;;;;6.95;2.70;;;13.10;46.50;;;;;;6187049;23;20001;-55
2021/04/14 09:10:57;;;;;;;7.35;2.58;;;13.20;46.40;;;;;;6210601;23;20012;-55
2021/04/14 09:13:36;;;;;;;3.72;2.40;;;13.20;46.40;;;;;;6187197;23;20001;-55
2021/04/14 09:16:05;;;;;;;6.47;2.88;;;13.20;46.50;;;;;;6187134;23;20004;-55
2021/04/14 09:18:43;;;;;;;8.05;2.85;;;13.20;46.50;;;;;;6186593;23;20047;-55
2021/04/14 09:21:12;;;;;;;0.90;0.90;;;13.20;46.30;;;;;;6187124;23;20013;-55
2021/04/14 09:24:03;;;;;;;4.67;1.63;;;13.30;46.40;;;;;;6187217;23;20301;-55
2021/04/14 09:26:34;;;;;;;5.18;2.25;;;13.30;46.10;;;;;;6186986;23;20664;-55
2021/04/14 09:29:00;;;;;;;4.30;2.45;;;13.30;46.00;;;;;;6186711;23;20008;-55
2021/04/14 09:31:39;;;;;;;4.47;2.50;;;13.30;46.10;;;;;;6187126;23;20008;-55
2021/04/14 09:34:11;;;;;;;5.38;2.50;;;13.30;45.80;;;;;;6187271;23;20088;-55
2021/04/14 09:36:45;;;;;;;4.15;1.65;;;13.30;46.00;;;;;;6187241;23;20001;-55
2021/04/14 09:39:27;;;;;;;2.17;1.40;;;13.30;46.10;;;;;;6186324;23;20313;-55
2021/04/14 09:41:53;;;;;;;5.22;2.05;;;13.30;46.20;;;;;;6186957;23;20005;-55
2021/04/14 09:44:39;;;;;;;4.18;2.25;;;13.30;45.80;;;;;;6186867;23;20005;-56
2021/04/14 09:47:10;;;;;;;8.20;1.92;;;13.30;45.90;;;;;;6186885;23;20024;-55
2021/04/14 09:49:42;;;;;;;6.43;1.70;;;13.30;46.10;;;;;;6186511;23;20004;-55
2021/04/14 09:52:28;;;;;;;5.05;1.88;;;13.20;45.90;;;;;;6186452;23;20084;-55
2021/04/14 09:55:14;;;;;;;4.20;1.75;;;13.20;46.00;;;;;;6186799;23;20005;-55
2021/04/14 09:57:43;;;;;;;4.15;1.80;;;13.20;46.10;;;;;;6186441;23;20032;-55
2021/04/14 10:00:17;;;;;;;2.00;1.50;;;13.20;46.10;;;;;;6186577;23;20013;-56
2021/04/14 10:02:46;;;;;;;5.85;2.05;;;13.10;46.30;;;;;;6186104;23;20005;-55
2021/04/14 10:05:12;;;;;;;1.80;1.35;;;13.10;46.10;;;;;;6186945;23;20015;-56
2021/04/14 10:07:41;;;;;;;3.58;1.77;;;13.10;46.90;;;;;;6186477;23;19997;-56
2021/04/14 10:10:11;;;;;;;4.22;1.85;;;13.00;46.30;;;;;;6186161;23;20011;-56
2021/04/14 10:12:38;;;;;;;4.97;1.60;;;13.00;46.20;;;;;;6186955;23;20005;-56
2021/04/14 10:15:06;;;;;;;1.15;1.05;;;13.00;46.30;;;;;;6186394;23;20085;-56
2021/04/14 10:17:33;;;;;;;2.70;1.65;;;12.90;46.30;;;;;;6186238;23;20007;-55
2021/04/14 10:20:10;;;;;;;5.25;1.70;;;12.90;46.30;;;;;;6185956;23;20013;-56
2021/04/14 10:22:44;;;;;;;2.88;1.65;;;12.90;46.20;;;;;;6186838;23;20005;-55
2021/04/14 10:25:19;;;;;;;5.45;1.77;;;12.90;46.30;;;;;;6186403;23;20012;-56
2021/04/14 10:27:46;;;;;;;3.47;1.80;;;12.80;46.50;;;;;;6186651;23;19997;-56
2021/04/14 10:30:19;;;;;;;5.55;1.67;;;12.70;46.60;;;;;;6186036;23;20353;-56
2021/04/14 10:32:45;;;;;;;6.45;1.67;;;12.70;46.50;;;;;;6186466;23;19998;-56
2021/04/14 10:35:17;;;;;;;4.05;1.60;;;12.70;46.90;;;;;;6186063;23;20080;-56
2021/04/14 10:37:51;;;;;;;1.80;1.40;;;12.70;47.00;;;;;;6186720;23;19997;-56
2021/04/14 10:40:39;;;;;;;4.60;1.23;;;12.60;47.10;;;;;;6185748;23;20044;-56
2021/04/14 10:43:16;;;;;;;3.50;1.55;;;12.60;47.40;;;;;;6186280;23;20001;-55
2021/04/14 10:46:20;;;;;;;6.03;1.75;;;12.50;47.40;;;;;;6186100;23;20008;-56
2021/04/14 10:48:48;;;;;;;2.42;1.50;;;12.50;47.60;;;;;;6123166;23;20018;-56
2021/04/14 10:51:22;;;;;;;5.25;1.45;;;12.50;47.70;;;;;;6123434;23;20009;-56
2021/04/14 10:53:54;;;;;;;3.88;1.75;;;12.50;47.90;;;;;;6124178;23;20010;-56
2021/04/14 10:56:23;;;;;;;11.10;1.50;;;12.50;48.10;;;;;;6124015;23;20004;-56
2021/04/14 10:58:50;;;;;;;2.00;1.40;;;12.40;48.10;;;;;;6123531;23;20084;-56
2021/04/14 11:01:19;;;;;;;2.67;1.40;;;12.40;48.20;;;;;;6123759;23;20038;-56
2021/04/14 11:04:03;;;;;;;4.53;1.38;;;12.40;48.50;;;;;;6124318;23;20410;-56
2021/04/14 11:06:29;;;;;;;3.42;1.88;;;12.40;48.50;;;;;;6123937;23;20006;-56
2021/04/14 11:08:55;;;;;;;6.28;1.88;;;12.30;48.60;;;;;;6123748;23;20005;-56
2021/04/14 11:11:22;;;;;;;1.17;1.08;;;12.30;48.90;;;;;;6123427;23;20017;-56
2021/04/14 11:13:49;;;;;;;3.17;1.65;;;12.30;48.90;;;;;;6123838;23;20117;-56
2021/04/14 11:16:15;;;;;;;3.72;1.48;;;12.30;49.00;;;;;;6123651;23;20035;-56
2021/04/14 11:18:43;;;;;;;2.72;1.90;;;12.30;49.10;;;;;;6133666;23;20008;-56
2021/04/14 11:21:28;;;;;;;1.77;1.58;;;12.20;49.10;;;;;;6185938;23;20074;-56
2021/04/14 11:24:07;;;;;;;1.45;1.35;;;12.20;49.20;;;;;;6185839;23;19997;-56
2021/04/14 11:27:00;;;;;;;2.33;1.75;;;12.20;49.30;;;;;;6185974;23;20008;-56
2021/04/14 11:29:31;;;;;;;3.38;1.60;;;12.20;49.40;;;;;;6177330;23;20021;-56
2021/04/14 11:31:59;;;;;;;4.03;1.33;;;12.20;49.50;;;;;;6186221;23;20017;-56
2021/04/14 11:34:28;;;;;;;6.88;1.50;;;12.20;49.60;;;;;;6185821;23;20001;-56
2021/04/14 11:36:58;;;;;;;3.08;1.50;;;12.20;49.60;;;;;;6186150;23;20093;-56
2021/04/14 11:39:25;;;;;;;7.47;1.40;;;12.20;49.60;;;;;;6185427;23;20017;-56
2021/04/14 11:42:02;;;;;;;4.00;1.65;;;12.20;49.60;;;;;;6185835;23;20005;-56
2021/04/14 11:44:52;;;;;;;2.00;1.40;;;12.10;49.60;;;;;;6185879;23;20497;-56
2021/04/14 11:47:34;;;;;;;1.37;1.20;;;12.10;49.70;;;;;;6168290;23;20072;-56
2021/04/14 11:50:13;;;;;;;5.30;1.40;;;12.10;49.80;;;;;;6185336;23;20228;-56
2021/04/14 11:52:48;;;;;;;2.13;1.58;;;12.10;49.80;;;;;;6185926;23;19997;-56
2021/04/14 11:55:20;;;;;;;6.03;1.63;;;12.10;49.90;;;;;;6185493;23;20005;-56
2021/04/14 11:57:48;;;;;;;2.75;1.52;;;12.10;49.80;;;;;;6185876;23;20273;-56
2021/04/14 12:00:23;;;;;;;2.42;1.33;;;12.10;49.90;;;;;;6185041;23;20407;-56
2021/04/14 12:02:51;;;;;;;2.13;1.50;;;12.10;50.00;;;;;;6185352;23;20300;-56
2021/04/14 12:05:16;;;;;;;1.52;1.30;;;12.10;50.00;;;;;;6185628;23;20005;-56
2021/04/14 12:07:43;;;;;;;3.60;1.33;;;12.10;49.90;;;;;;6185728;23;20352;-56
2021/04/14 12:10:14;;;;;;;3.05;1.40;;;12.10;49.90;;;;;;6185216;23;20005;-56
2021/04/14 12:12:40;;;;;;;3.53;1.60;;;12.10;50.00;;;;;;6183375;23;20001;-56
2021/04/14 12:15:08;;;;;;;2.95;1.75;;;12.10;49.80;;;;;;6185367;23;20020;-56
2021/04/14 12:17:34;;;;;;;2.45;1.60;;;12.00;49.60;;;;;;6185561;23;20051;-56
2021/04/14 12:20:00;;;;;;;1.65;1.30;;;12.00;50.20;;;;;;6184065;23;20064;-56
2021/04/14 12:22:25;;;;;;;2.35;1.38;;;12.00;49.40;;;;;;6185444;23;20005;-56
2021/04/14 12:24:52;;;;;;;4.30;1.42;;;12.00;49.30;;;;;;6185843;23;20005;-56
2021/04/14 12:27:17;;;;;;;5.80;1.83;;;12.00;49.40;;;;;;6185426;23;20068;-56
2021/04/14 12:29:44;;;;;;;4.38;1.27;;;12.00;49.40;;;;;;6185459;23;20412;-56
2021/04/14 12:32:10;;;;;;;3.00;1.40;;;12.00;49.60;;;;;;6185603;23;20056;-56
2021/04/14 12:34:35;;;;;;;1.23;1.10;;;12.00;49.70;;;;;;6185451;23;20312;-56
2021/04/14 12:37:01;;;;;;;3.10;1.40;;;12.00;49.70;;;;;;6185454;23;20001;-57
2021/04/14 12:39:27;;;;;;;2.13;1.40;;;12.00;49.50;;;;;;6185392;23;20344;-56
2021/04/14 12:41:52;;;;;;;9.80;1.95;;;12.00;49.60;;;;;;6185548;23;20429;-56
2021/04/14 12:44:21;;;;;;;3.85;1.70;;;12.00;49.60;;;;;;6185622;23;20113;-56
2021/04/14 12:46:48;;;;;;;3.33;1.40;;;12.00;49.60;;;;;;6185635;23;20005;-56
2021/04/14 12:49:16;;;;;;;2.72;1.40;;;12.00;49.40;;;;;;6185174;23;20008;-56
2021/04/14 12:51:59;;;;;;;9.05;1.88;;;12.00;49.50;;;;;;6185198;23;20076;-57
2021/04/14 12:54:38;;;;;;;3.05;1.60;;;12.00;49.60;;;;;;6185576;23;20072;-56
2021/04/14 12:57:06;;;;;;;1.63;1.42;;;12.00;49.60;;;;;;6185181;23;20004;-56
2021/04/14 12:59:41;;;;;;;3.03;1.65;;;11.90;49.60;;;;;;6185174;23;20017;-56
2021/04/14 13:02:14;;;;;;;4.70;1.40;;;11.90;49.50;;;;;;6185204;23;20008;-56
2021/04/14 13:04:52;;;;;;;3.17;1.48;;;11.90;49.60;;;;;;6185726;23;20431;-56
2021/04/14 13:07:26;;;;;;;2.55;1.75;;;11.90;49.50;;;;;;6185019;23;20044;-56